Time;durP1;ratioP1;P1;durP2;ratioP2;P2;SDS_P1;SDS_P2;PMS_P1;PMS_P2;Temp;Humidity;BMP_temperature;BMP_pressure;BME280_temperature;BME280_humidity;BME280_pressure;Samples;Min_cycle;Max_cycle;Signal;HPM_P1;HPM_P2
2022/06/03 00:01:26;;;;;;;2.72;2.28;;;21.70;49.50;;;;;;4992862;28;20196;-70
2022/06/03 00:04:07;;;;;;;2.33;2.13;;;21.70;49.50;;;;;;4992899;28;20217;-70
2022/06/03 00:06:51;;;;;;;2.33;2.13;;;21.70;49.50;;;;;;4994484;28;20202;-70
2022/06/03 00:09:44;;;;;;;2.33;2.10;;;21.70;49.40;;;;;;4994056;28;20189;-70
2022/06/03 00:12:24;;;;;;;2.10;2.00;;;21.60;49.30;;;;;;4992962;28;20271;-70
2022/06/03 00:15:01;;;;;;;2.40;2.20;;;21.60;49.30;;;;;;4993899;28;20189;-70
2022/06/03 00:17:40;;;;;;;2.22;2.13;;;21.70;49.40;;;;;;4993521;28;20201;-70
2022/06/03 00:20:13;;;;;;;2.50;2.30;;;21.60;49.40;;;;;;4992787;28;20200;-70
2022/06/03 00:22:58;;;;;;;2.17;2.00;;;21.60;49.30;;;;;;4992717;28;20222;-70
2022/06/03 00:25:52;;;;;;;2.13;2.03;;;21.60;49.40;;;;;;5009053;28;20193;-70
2022/06/03 00:28:47;;;;;;;2.17;2.08;;;21.60;49.40;;;;;;4994210;28;20240;-71
2022/06/03 00:31:21;;;;;;;2.30;2.20;;;21.70;49.50;;;;;;4979794;28;20248;-70
2022/06/03 00:33:58;;;;;;;2.28;2.13;;;21.60;49.40;;;;;;5009073;28;20705;-71
2022/06/03 00:36:32;;;;;;;2.30;2.10;;;21.60;49.30;;;;;;5010608;28;20291;-71
2022/06/03 00:39:14;;;;;;;2.20;2.00;;;21.60;49.40;;;;;;5013177;28;20197;-70
2022/06/03 00:41:49;;;;;;;2.10;2.00;;;21.60;49.40;;;;;;5012811;28;20228;-70
2022/06/03 00:44:47;;;;;;;2.38;2.17;;;21.60;49.50;;;;;;4996697;28;20217;-71
2022/06/03 00:47:23;;;;;;;2.28;2.17;;;21.50;49.40;;;;;;4996087;28;20373;-70
2022/06/03 00:49:58;;;;;;;1.90;1.80;;;21.50;49.50;;;;;;5012737;28;20689;-70
2022/06/03 00:52:58;;;;;;;2.63;2.42;;;21.60;49.50;;;;;;4997772;28;20686;-70
2022/06/03 00:55:49;;;;;;;2.40;2.20;;;21.50;49.40;;;;;;5003137;28;20252;-70
2022/06/03 00:58:47;;;;;;;2.05;1.95;;;21.50;49.50;;;;;;4996231;28;20190;-70
2022/06/03 01:01:19;;;;;;;1.90;1.80;;;21.50;49.50;;;;;;4996045;28;20197;-70
2022/06/03 01:03:57;;;;;;;2.08;1.98;;;21.50;49.50;;;;;;4996069;28;20209;-70
2022/06/03 01:06:29;;;;;;;2.80;2.00;;;21.50;49.50;;;;;;4995987;28;20201;-70
2022/06/03 01:09:07;;;;;;;2.00;1.90;;;21.50;49.50;;;;;;5012308;28;20197;-70
2022/06/03 01:11:49;;;;;;;2.33;2.13;;;21.50;49.50;;;;;;4995926;28;20213;-70
2022/06/03 01:14:23;;;;;;;2.00;1.90;;;21.50;49.60;;;;;;5012122;28;20209;-70
2022/06/03 01:17:00;;;;;;;2.38;2.17;;;21.50;49.50;;;;;;4995911;28;20193;-70
2022/06/03 01:19:39;;;;;;;2.00;1.90;;;21.50;49.50;;;;;;4995798;28;20205;-70
2022/06/03 01:22:27;;;;;;;2.00;1.90;;;21.40;49.40;;;;;;4995781;28;20229;-71
2022/06/03 01:25:10;;;;;;;2.20;2.10;;;21.50;49.60;;;;;;5012165;28;20213;-70
2022/06/03 01:28:01;;;;;;;2.10;2.00;;;21.40;49.50;;;;;;5012095;28;20194;-70
2022/06/03 01:30:41;;;;;;;2.17;2.08;;;21.40;49.50;;;;;;5012008;28;20585;-70
2022/06/03 01:33:25;;;;;;;2.58;2.38;;;21.40;49.50;;;;;;4995599;28;20225;-70
2022/06/03 01:36:18;;;;;;;2.22;2.13;;;21.40;49.60;;;;;;4995481;28;20662;-70
2022/06/03 01:38:58;;;;;;;2.35;2.25;;;21.40;49.70;;;;;;4995431;28;20619;-70
2022/06/03 01:41:49;;;;;;;2.10;2.00;;;21.40;49.70;;;;;;4997259;28;20217;-70
2022/06/03 01:44:49;;;;;;;2.55;2.35;;;21.30;49.60;;;;;;5008843;28;20213;-70
2022/06/03 01:47:50;;;;;;;2.08;1.98;;;21.40;49.70;;;;;;4995041;28;20292;-70
2022/06/03 01:50:49;;;;;;;1.98;1.88;;;21.30;49.70;;;;;;5011766;28;20202;-71
2022/06/03 01:53:40;;;;;;;2.22;2.00;;;21.30;49.70;;;;;;4995845;28;20225;-71
2022/06/03 01:56:33;;;;;;;1.92;1.83;;;21.30;49.70;;;;;;4982652;28;20201;-71
2022/06/03 01:59:10;;;;;;;2.08;1.98;;;21.30;49.70;;;;;;4995285;28;20271;-70
2022/06/03 02:02:08;;;;;;;2.53;2.33;;;21.30;49.70;;;;;;4995185;28;20217;-70
2022/06/03 02:04:55;;;;;;;2.08;1.98;;;21.30;49.80;;;;;;4966303;28;20229;-70
2022/06/03 02:07:45;;;;;;;2.28;2.05;;;21.30;49.80;;;;;;5011432;28;20225;-70
2022/06/03 02:10:38;;;;;;;2.10;2.00;;;21.20;49.70;;;;;;5011235;28;20198;-71
2022/06/03 02:13:37;;;;;;;2.55;2.40;;;21.30;49.80;;;;;;4965748;28;20260;-71
2022/06/03 02:16:20;;;;;;;2.30;2.05;;;21.20;49.70;;;;;;4995089;28;20257;-71
2022/06/03 02:19:01;;;;;;;2.00;1.90;;;21.20;50.40;;;;;;4994840;28;20553;-70
2022/06/03 02:21:45;;;;;;;2.10;2.00;;;21.20;49.90;;;;;;4994612;28;20248;-69
2022/06/03 02:24:40;;;;;;;2.05;1.95;;;21.20;49.90;;;;;;4994676;28;20307;-70
2022/06/03 02:27:45;;;;;;;2.00;1.90;;;21.20;49.90;;;;;;4994949;28;20201;-70
2022/06/03 02:30:36;;;;;;;2.13;2.00;;;21.20;50.00;;;;;;5010812;28;20670;-70
2022/06/03 02:33:30;;;;;;;2.10;2.00;;;21.20;50.60;;;;;;4994546;28;20217;-70
2022/06/03 02:36:22;;;;;;;1.90;1.80;;;21.20;50.00;;;;;;4994449;28;20193;-70
2022/06/03 02:39:20;;;;;;;2.08;1.98;;;21.20;50.60;;;;;;5053908;23;20242;-69
2022/06/03 02:42:04;;;;;;;2.40;2.20;;;21.10;49.90;;;;;;5013883;28;20290;-69
2022/06/03 02:44:41;;;;;;;2.10;2.00;;;21.10;50.00;;;;;;5013793;28;20209;-69
2022/06/03 02:48:06;;;;;;;1.98;1.88;;;21.10;50.00;;;;;;5013912;28;20188;-70
2022/06/03 02:50:43;;;;;;;2.33;2.13;;;21.10;50.00;;;;;;4916744;29;20698;-70
2022/06/03 02:53:40;;;;;;;2.08;1.98;;;21.10;50.00;;;;;;5015002;28;20294;-70
2022/06/03 02:56:22;;;;;;;2.10;2.00;;;21.10;50.00;;;;;;5011232;28;20227;-70
2022/06/03 02:59:02;;;;;;;2.50;1.90;;;21.10;50.00;;;;;;5046647;23;20236;-60
2022/06/03 03:01:50;;;;;;;1.90;1.80;;;21.10;50.00;;;;;;5033368;28;20215;-60
2022/06/03 03:04:41;;;;;;;2.65;2.03;;;21.10;50.00;;;;;;5034326;28;20202;-60
2022/06/03 03:07:36;;;;;;;1.88;1.77;;;21.10;50.00;;;;;;5034529;28;20200;-60
2022/06/03 03:10:48;;;;;;;2.08;1.98;;;21.10;50.00;;;;;;5032998;28;20751;-60
2022/06/03 03:13:26;;;;;;;2.22;2.13;;;21.10;50.00;;;;;;5010946;28;20581;-60
2022/06/03 03:16:23;;;;;;;1.98;1.88;;;21.10;50.00;;;;;;5032836;28;20219;-60
2022/06/03 03:19:38;;;;;;;2.15;2.05;;;21.10;50.00;;;;;;5021376;28;20746;-61
2022/06/03 03:22:29;;;;;;;2.20;2.10;;;21.20;50.00;;;;;;5029212;28;20208;-60
2022/06/03 03:25:33;;;;;;;2.33;2.13;;;21.20;49.90;;;;;;5032501;28;20322;-60
2022/06/03 03:28:28;;;;;;;2.00;1.90;;;21.30;49.90;;;;;;5032598;28;20212;-60
2022/06/03 03:31:04;;;;;;;2.08;1.88;;;21.30;49.80;;;;;;5032560;28;20270;-60
2022/06/03 03:33:45;;;;;;;2.17;2.03;;;21.30;49.60;;;;;;5034065;28;20179;-61
2022/06/03 03:36:30;;;;;;;2.10;2.00;;;21.40;49.60;;;;;;5033928;28;20208;-60
2022/06/03 03:39:13;;;;;;;2.28;2.17;;;21.40;49.50;;;;;;5032467;28;20196;-61
2022/06/03 03:42:20;;;;;;;1.90;1.80;;;21.40;49.40;;;;;;5033660;28;20636;-60
2022/06/03 03:45:15;;;;;;;2.28;2.10;;;21.50;49.40;;;;;;5032173;28;20718;-60
2022/06/03 03:48:13;;;;;;;2.00;1.90;;;21.50;49.30;;;;;;5032230;28;20204;-61
2022/06/03 03:50:49;;;;;;;2.40;2.17;;;21.50;49.40;;;;;;5033795;28;20184;-60
2022/06/03 03:53:36;;;;;;;2.40;2.20;;;21.50;49.20;;;;;;5032326;28;20318;-61
2022/06/03 03:56:47;;;;;;;2.10;2.00;;;21.50;49.20;;;;;;5032079;28;20240;-61
2022/06/03 03:59:27;;;;;;;2.13;2.03;;;21.50;49.20;;;;;;5033560;28;20222;-60
2022/06/03 04:02:30;;;;;;;1.92;1.83;;;21.50;49.20;;;;;;5032091;28;20195;-60
2022/06/03 04:05:31;;;;;;;2.22;2.10;;;21.50;49.10;;;;;;4998090;28;20243;-60
2022/06/03 04:08:25;;;;;;;2.58;2.38;;;21.50;49.20;;;;;;5032137;28;20246;-61
2022/06/03 04:11:16;;;;;;;1.85;1.75;;;21.50;49.10;;;;;;5031621;28;20219;-60
2022/06/03 04:14:19;;;;;;;2.10;2.00;;;21.60;49.10;;;;;;5033544;28;20189;-60
2022/06/03 04:17:13;;;;;;;2.30;2.20;;;21.60;49.10;;;;;;5031959;28;20666;-60
2022/06/03 04:20:13;;;;;;;2.03;1.92;;;21.60;49.10;;;;;;5031937;28;20254;-61
2022/06/03 04:22:59;;;;;;;2.05;1.95;;;21.60;49.00;;;;;;5029260;28;20667;-61
2022/06/03 04:26:06;;;;;;;2.47;2.28;;;21.60;49.00;;;;;;5031756;28;20223;-60
2022/06/03 04:29:34;;;;;;;2.28;2.08;;;21.60;48.90;;;;;;5007890;28;20214;-60
2022/06/03 04:32:28;;;;;;;2.25;2.05;;;21.60;48.90;;;;;;4972594;28;20277;-60
2022/06/03 04:35:29;;;;;;;2.17;2.08;;;21.60;48.90;;;;;;5031722;28;20345;-60
2022/06/03 04:38:50;;;;;;;2.67;2.47;;;21.60;48.80;;;;;;5031796;28;20194;-61
2022/06/03 04:42:04;;;;;;;2.72;2.53;;;21.70;48.90;;;;;;4972217;28;20262;-60
2022/06/03 04:44:57;;;;;;;3.00;2.80;;;21.80;49.20;;;;;;4975037;28;20253;-60
2022/06/03 04:48:01;;;;;;;4.70;3.10;;;21.90;49.90;;;;;;4991440;28;20646;-60
2022/06/03 04:50:55;;;;;;;3.13;2.92;;;22.00;49.70;;;;;;5024228;28;20281;-60
2022/06/03 04:54:19;;;;;;;3.30;3.00;;;22.20;49.60;;;;;;5031534;28;20205;-60
2022/06/03 04:57:10;;;;;;;3.42;3.13;;;22.30;49.50;;;;;;5032962;28;20183;-60
2022/06/03 05:00:02;;;;;;;3.80;2.92;;;22.40;49.70;;;;;;5032713;28;20192;-60
2022/06/03 05:03:12;;;;;;;3.45;3.15;;;22.50;49.60;;;;;;5032927;28;20188;-61
2022/06/03 05:06:15;;;;;;;3.60;3.30;;;22.60;49.60;;;;;;5031407;28;20216;-60
2022/06/03 05:09:20;;;;;;;3.70;3.40;;;22.60;49.50;;;;;;5033121;28;20172;-60
2022/06/03 05:12:32;;;;;;;3.97;3.58;;;22.70;49.80;;;;;;5032750;28;20192;-61
2022/06/03 05:15:34;;;;;;;3.85;3.55;;;22.80;49.80;;;;;;5018330;28;20303;-60
2022/06/03 05:18:25;;;;;;;3.80;3.50;;;22.90;49.40;;;;;;5007295;28;20211;-61
2022/06/03 05:21:17;;;;;;;4.88;3.20;;;23.10;49.00;;;;;;5032656;28;20662;-61
2022/06/03 05:24:02;;;;;;;3.00;2.80;;;23.30;48.30;;;;;;5034623;28;20624;-60
2022/06/03 05:26:56;;;;;;;3.25;3.05;;;23.40;47.50;;;;;;5036611;28;20200;-61
2022/06/03 05:29:48;;;;;;;3.30;3.00;;;23.50;47.00;;;;;;5036273;28;20208;-61
2022/06/03 05:32:39;;;;;;;2.88;2.67;;;23.70;46.60;;;;;;5034838;28;20188;-61
2022/06/03 05:35:28;;;;;;;3.42;3.13;;;23.80;46.20;;;;;;5034699;28;20212;-61
2022/06/03 05:38:21;;;;;;;3.08;2.88;;;23.90;46.00;;;;;;5034727;28;20196;-61
2022/06/03 05:41:04;;;;;;;3.40;3.10;;;24.00;46.40;;;;;;5035478;28;20192;-61
2022/06/03 05:43:51;;;;;;;3.50;3.20;;;24.00;45.60;;;;;;5034511;28;20204;-60
2022/06/03 05:46:21;;;;;;;3.05;2.85;;;24.10;45.40;;;;;;5035407;28;20216;-60
2022/06/03 05:48:53;;;;;;;3.10;2.85;;;24.20;45.20;;;;;;5036074;28;20719;-60
2022/06/03 05:51:31;;;;;;;3.70;3.00;;;24.30;45.20;;;;;;5034504;28;20188;-60
2022/06/03 05:54:00;;;;;;;4.07;3.08;;;24.30;45.00;;;;;;5035675;28;20663;-60
2022/06/03 05:56:45;;;;;;;3.13;2.83;;;24.40;44.80;;;;;;5034187;28;20709;-60
2022/06/03 05:59:16;;;;;;;3.05;2.80;;;24.60;44.80;;;;;;5033104;28;20208;-61
2022/06/03 06:02:06;;;;;;;3.65;3.00;;;24.70;44.60;;;;;;5035786;28;20215;-60
2022/06/03 06:04:41;;;;;;;2.80;2.60;;;24.80;44.50;;;;;;5035248;28;20216;-61
2022/06/03 06:07:12;;;;;;;3.63;2.80;;;24.80;44.30;;;;;;5035556;28;20588;-61
2022/06/03 06:09:45;;;;;;;2.85;2.65;;;24.90;44.20;;;;;;5035685;28;20238;-62
2022/06/03 06:12:24;;;;;;;2.88;2.67;;;25.00;44.00;;;;;;5035819;28;20191;-62
2022/06/03 06:15:03;;;;;;;3.00;2.80;;;25.00;43.70;;;;;;5033936;28;20216;-62
2022/06/03 06:17:46;;;;;;;2.95;2.75;;;25.10;43.70;;;;;;5035471;28;20184;-62
2022/06/03 06:20:19;;;;;;;2.85;2.60;;;25.20;43.50;;;;;;5033960;28;20196;-61
2022/06/03 06:22:48;;;;;;;2.63;2.42;;;25.20;43.40;;;;;;5033877;28;20279;-62
2022/06/03 06:25:21;;;;;;;2.78;2.58;;;25.20;43.30;;;;;;5034857;28;20262;-62
2022/06/03 06:27:57;;;;;;;3.60;2.83;;;25.20;43.30;;;;;;5033728;28;20314;-62
2022/06/03 06:30:57;;;;;;;2.60;2.40;;;25.20;43.30;;;;;;5034960;28;20180;-61
2022/06/03 06:33:34;;;;;;;3.05;2.78;;;25.10;43.20;;;;;;5030171;28;20196;-61
2022/06/03 06:39:56;;;;;;;2.60;2.40;;;25.30;43.10;;;;;;5046807;23;21145;-69
2022/06/03 06:42:35;;;;;;;2.88;2.67;;;25.40;42.80;;;;;;5014030;28;20220;-72
2022/06/03 06:45:12;;;;;;;2.80;2.60;;;25.50;42.60;;;;;;5013726;28;20646;-72
2022/06/03 06:47:45;;;;;;;3.00;2.70;;;25.60;42.40;;;;;;5013649;28;20583;-72
2022/06/03 06:50:17;;;;;;;2.80;2.60;;;25.70;42.10;;;;;;5013709;28;20205;-72
2022/06/03 06:52:52;;;;;;;2.92;2.72;;;25.80;42.00;;;;;;5013640;28;20247;-72
2022/06/03 06:55:22;;;;;;;2.90;2.70;;;25.90;41.80;;;;;;5013767;28;20184;-72
2022/06/03 06:57:54;;;;;;;2.80;2.60;;;25.90;41.70;;;;;;5013502;28;20418;-72
2022/06/03 07:00:24;;;;;;;2.63;2.33;;;25.90;41.60;;;;;;5013582;28;20200;-72
2022/06/03 07:02:53;;;;;;;3.03;2.47;;;25.90;41.40;;;;;;5013516;28;20653;-72
2022/06/03 07:05:24;;;;;;;2.83;2.40;;;26.00;41.20;;;;;;5013377;28;20224;-72
2022/06/03 07:07:54;;;;;;;2.78;2.58;;;26.10;41.30;;;;;;5013460;28;20705;-72
2022/06/03 07:10:24;;;;;;;2.70;2.50;;;26.20;41.20;;;;;;5013454;28;20208;-72
2022/06/03 07:12:55;;;;;;;2.60;2.40;;;26.20;41.00;;;;;;5013454;28;20201;-72
2022/06/03 07:15:24;;;;;;;2.63;2.38;;;26.30;40.90;;;;;;5013434;28;20197;-72
2022/06/03 07:21:00;;;;;;;2.75;2.55;;;26.40;40.60;;;;;;5013232;28;20196;-72
2022/06/03 07:23:32;;;;;;;2.92;2.53;;;26.50;40.50;;;;;;5013639;28;20197;-72
2022/06/03 07:26:00;;;;;;;2.80;2.60;;;26.60;40.40;;;;;;5013497;28;20611;-72
2022/06/03 07:28:33;;;;;;;2.50;2.30;;;26.60;40.20;;;;;;5013808;28;20250;-72
2022/06/03 07:31:07;;;;;;;2.60;2.40;;;26.70;40.80;;;;;;5013931;28;20228;-72
2022/06/03 07:33:41;;;;;;;2.83;2.63;;;26.70;40.10;;;;;;5013186;28;20196;-72
2022/06/03 07:36:13;;;;;;;2.47;2.30;;;26.70;39.90;;;;;;5013121;28;20567;-72
2022/06/03 07:38:45;;;;;;;2.30;2.10;;;26.80;39.90;;;;;;5012862;28;20228;-72
2022/06/03 07:41:15;;;;;;;2.42;2.33;;;26.80;39.70;;;;;;5012832;28;20208;-72
2022/06/03 07:43:45;;;;;;;2.30;2.20;;;26.90;39.70;;;;;;5012848;28;20205;-72
2022/06/03 07:46:13;;;;;;;2.35;2.20;;;26.90;39.60;;;;;;5011969;28;20311;-72
2022/06/03 07:48:41;;;;;;;2.90;2.70;;;26.90;39.60;;;;;;5012798;28;20225;-72
2022/06/03 07:51:11;;;;;;;2.50;2.30;;;27.00;39.50;;;;;;5012882;28;20247;-72
2022/06/03 07:53:43;;;;;;;2.72;2.53;;;27.00;39.50;;;;;;5012714;28;20228;-72
2022/06/03 07:56:11;;;;;;;2.40;2.30;;;27.00;39.40;;;;;;5012811;28;20247;-72
2022/06/03 07:58:38;;;;;;;2.53;2.33;;;27.10;39.40;;;;;;5012938;28;20236;-72
2022/06/03 08:01:07;;;;;;;2.47;2.20;;;27.10;39.30;;;;;;5014895;28;20204;-72
2022/06/03 08:03:36;;;;;;;2.33;2.13;;;27.10;39.20;;;;;;5024269;28;20208;-72
2022/06/03 08:06:06;;;;;;;2.60;2.40;;;27.10;39.10;;;;;;5026816;28;20212;-72
2022/06/03 08:11:24;;;;;;;2.63;2.42;;;27.10;39.00;;;;;;5012938;28;20278;-72
2022/06/03 08:13:52;;;;;;;2.63;2.42;;;27.10;39.00;;;;;;5013005;28;20707;-72
2022/06/03 08:16:25;;;;;;;2.55;2.45;;;27.10;39.00;;;;;;5012499;28;20197;-72
2022/06/03 08:18:52;;;;;;;2.85;2.60;;;27.20;39.00;;;;;;5012397;28;20311;-72
2022/06/03 08:21:22;;;;;;;2.38;2.20;;;27.20;38.90;;;;;;5012477;28;20224;-72
2022/06/03 08:23:49;;;;;;;2.20;2.00;;;27.20;39.50;;;;;;5012615;28;20251;-72
2022/06/03 08:26:17;;;;;;;2.38;2.28;;;27.20;38.80;;;;;;5012317;28;20223;-72
2022/06/03 08:28:45;;;;;;;2.30;2.10;;;27.30;38.80;;;;;;5012366;28;20242;-73
2022/06/03 08:31:13;;;;;;;2.30;2.20;;;27.30;38.70;;;;;;5012570;28;20719;-72
2022/06/03 08:33:42;;;;;;;2.20;2.10;;;27.30;38.70;;;;;;5012293;28;20195;-72
2022/06/03 08:36:11;;;;;;;2.40;2.30;;;27.30;38.70;;;;;;5013108;28;20188;-72
2022/06/03 08:38:41;;;;;;;2.70;2.50;;;27.30;38.70;;;;;;5012234;28;20318;-72
2022/06/03 08:41:19;;;;;;;2.20;2.10;;;27.30;38.70;;;;;;5012125;28;20295;-72
2022/06/03 08:43:58;;;;;;;2.47;2.28;;;27.40;38.70;;;;;;5012267;28;20200;-72
2022/06/03 08:46:27;;;;;;;2.60;2.40;;;27.40;38.60;;;;;;5012108;28;20220;-73
2022/06/03 08:49:00;;;;;;;2.42;2.20;;;27.50;38.60;;;;;;5012220;28;20705;-72
2022/06/03 08:51:34;;;;;;;2.70;2.17;;;27.40;38.40;;;;;;5012617;28;20246;-72
2022/06/03 08:54:02;;;;;;;2.65;2.20;;;27.50;38.40;;;;;;5012438;28;20199;-72
2022/06/03 08:56:31;;;;;;;2.40;2.30;;;27.50;38.40;;;;;;5012456;28;20246;-72
2022/06/03 08:59:01;;;;;;;2.50;2.30;;;27.50;38.30;;;;;;5056566;23;20228;-71
2022/06/03 09:01:32;;;;;;;2.20;2.10;;;27.50;38.30;;;;;;5025880;28;20263;-72
2022/06/03 09:04:09;;;;;;;2.20;2.10;;;27.40;38.40;;;;;;5039098;28;20188;-72
2022/06/03 09:06:45;;;;;;;2.50;2.30;;;27.30;38.60;;;;;;5022347;28;20310;-72
2022/06/03 09:09:16;;;;;;;2.50;2.30;;;27.20;39.00;;;;;;5015568;28;20216;-71
2022/06/03 09:11:47;;;;;;;2.53;2.33;;;27.00;39.10;;;;;;5015561;28;20599;-71
2022/06/03 09:14:18;;;;;;;2.30;2.20;;;27.00;39.20;;;;;;5016193;28;20201;-72
2022/06/03 09:16:46;;;;;;;2.30;2.10;;;27.00;39.10;;;;;;5016268;28;20193;-72
2022/06/03 09:19:17;;;;;;;2.30;2.15;;;27.00;39.00;;;;;;5015438;28;20700;-72
2022/06/03 09:21:45;;;;;;;2.50;2.30;;;27.10;39.00;;;;;;5015328;28;20200;-72
2022/06/03 09:24:15;;;;;;;2.40;2.20;;;27.10;38.80;;;;;;5015480;28;20279;-71
2022/06/03 09:26:43;;;;;;;2.10;2.00;;;27.20;38.90;;;;;;5015581;28;20243;-72
2022/06/03 09:29:11;;;;;;;2.35;2.15;;;27.20;38.90;;;;;;5015192;28;20244;-72
2022/06/03 09:31:39;;;;;;;2.10;1.90;;;27.20;38.90;;;;;;5015191;28;20204;-72
2022/06/03 09:34:07;;;;;;;2.40;2.20;;;27.20;38.90;;;;;;5015084;28;20553;-71
2022/06/03 09:36:35;;;;;;;2.60;2.40;;;27.20;38.90;;;;;;5015154;28;20607;-71
2022/06/03 09:39:05;;;;;;;2.35;2.15;;;27.20;38.90;;;;;;5015091;28;20219;-72
2022/06/03 09:41:34;;;;;;;2.08;1.98;;;27.20;38.90;;;;;;5014929;28;20251;-72
2022/06/03 09:44:03;;;;;;;2.25;2.15;;;27.20;39.50;;;;;;5014995;28;20200;-72
2022/06/03 09:46:30;;;;;;;2.40;2.20;;;27.20;38.90;;;;;;5014922;28;20242;-72
2022/06/03 09:48:57;;;;;;;2.28;2.13;;;27.20;38.90;;;;;;5014765;28;20224;-71
2022/06/03 09:51:55;;;;;;;2.30;2.20;;;27.20;38.90;;;;;;5014728;28;20246;-71
2022/06/03 09:54:14;;;;;;;2.35;2.15;;;27.10;39.00;;;;;;5014654;28;20230;-72
2022/06/03 09:56:46;;;;;;;2.20;2.10;;;27.10;39.00;;;;;;5014839;28;20188;-71
2022/06/03 09:59:14;;;;;;;2.40;2.20;;;27.10;39.00;;;;;;5014635;28;20234;-71
2022/06/03 10:01:41;;;;;;;2.20;2.10;;;27.10;39.00;;;;;;5014617;28;20295;-71
2022/06/03 10:04:09;;;;;;;1.98;1.88;;;27.10;39.00;;;;;;5014593;28;20259;-72
2022/06/03 10:06:46;;;;;;;2.20;2.10;;;27.10;39.10;;;;;;5014423;28;20216;-71
2022/06/03 10:15:37;;;;;;;2.30;2.10;;;27.00;39.30;;;;;;5014469;28;20203;-71
2022/06/03 10:17:33;;;;;;;2.08;1.98;;;27.00;39.90;;;;;;5014350;28;20251;-72
2022/06/03 10:20:00;;;;;;;2.10;2.00;;;26.90;39.40;;;;;;5014277;28;20266;-71
2022/06/03 10:22:29;;;;;;;2.30;2.10;;;26.90;39.40;;;;;;5014451;28;20287;-71
2022/06/03 10:24:59;;;;;;;2.40;2.22;;;26.90;39.50;;;;;;5014103;28;20200;-70
2022/06/03 10:27:27;;;;;;;2.40;2.20;;;26.80;39.60;;;;;;5014097;28;20220;-72
2022/06/03 10:29:54;;;;;;;2.10;2.00;;;26.80;39.70;;;;;;5014285;28;20287;-72
2022/06/03 10:32:22;;;;;;;2.20;2.10;;;26.80;39.70;;;;;;5013714;28;20200;-71
2022/06/03 10:34:50;;;;;;;2.40;2.20;;;26.80;39.80;;;;;;5013950;28;20270;-72
2022/06/03 10:37:22;;;;;;;2.10;2.00;;;26.70;39.80;;;;;;5014050;28;20197;-72
2022/06/03 10:39:49;;;;;;;2.22;2.10;;;26.70;39.80;;;;;;5014370;28;20192;-71
2022/06/03 10:42:19;;;;;;;2.33;2.10;;;26.70;40.00;;;;;;5018311;28;20280;-71
2022/06/03 10:44:47;;;;;;;1.95;1.85;;;26.60;40.00;;;;;;5020064;28;20196;-72
2022/06/03 10:47:16;;;;;;;2.55;2.35;;;26.60;40.50;;;;;;5013704;28;20277;-72
2022/06/03 10:49:51;;;;;;;2.03;1.92;;;26.60;40.80;;;;;;5015258;28;20704;-71
2022/06/03 11:03:31;;;;;;;2.38;2.17;;;26.50;40.40;;;;;;5013607;28;20708;-72
2022/06/03 11:06:00;;;;;;;2.28;2.10;;;26.50;40.50;;;;;;5013507;28;20204;-72
2022/06/03 11:08:27;;;;;;;2.33;2.20;;;26.40;40.50;;;;;;5013153;28;20216;-71
2022/06/03 11:10:55;;;;;;;2.30;2.10;;;26.40;40.60;;;;;;5013858;28;20232;-72
2022/06/03 11:13:28;;;;;;;2.55;2.17;;;26.30;40.70;;;;;;5013527;28;20201;-72
2022/06/03 11:15:55;;;;;;;2.10;2.00;;;26.30;40.90;;;;;;5013297;28;20207;-72
2022/06/03 11:18:26;;;;;;;2.20;2.10;;;26.20;41.00;;;;;;5013561;28;20244;-72
2022/06/03 11:20:53;;;;;;;2.20;2.10;;;26.20;41.20;;;;;;5014140;28;20196;-72
2022/06/03 11:23:21;;;;;;;1.98;1.88;;;26.10;41.30;;;;;;5013267;28;20197;-72
2022/06/03 11:25:49;;;;;;;1.90;1.80;;;26.10;41.30;;;;;;5013270;28;20199;-72
2022/06/03 11:28:19;;;;;;;2.15;2.05;;;26.00;41.50;;;;;;5013029;28;20228;-72
2022/06/03 11:30:51;;;;;;;1.90;1.80;;;26.00;42.30;;;;;;5013163;28;20228;-72
2022/06/03 11:33:25;;;;;;;1.90;1.80;;;25.90;41.70;;;;;;5013875;28;20203;-72
2022/06/03 11:35:54;;;;;;;1.90;1.80;;;25.90;41.80;;;;;;5012950;28;20185;-72
2022/06/03 11:38:29;;;;;;;2.28;2.10;;;25.90;41.90;;;;;;5012906;28;20731;-72
2022/06/03 11:40:58;;;;;;;1.90;1.80;;;25.90;42.00;;;;;;5013141;28;20687;-72
2022/06/03 11:43:28;;;;;;;2.25;2.00;;;25.80;42.00;;;;;;5012868;28;20196;-72
2022/06/03 11:46:00;;;;;;;1.95;1.85;;;25.80;42.10;;;;;;5012749;28;20192;-72
2022/06/03 11:48:29;;;;;;;2.22;2.10;;;25.80;42.20;;;;;;5012657;28;20716;-72
2022/06/03 11:50:58;;;;;;;2.10;1.95;;;25.80;42.90;;;;;;5013046;28;20259;-72
2022/06/03 11:53:28;;;;;;;2.30;2.10;;;25.70;42.30;;;;;;5013999;28;20199;-73
2022/06/03 11:55:56;;;;;;;2.03;1.92;;;25.70;42.30;;;;;;5013765;28;20300;-72
2022/06/03 11:58:28;;;;;;;2.10;2.00;;;25.70;42.30;;;;;;5012380;28;20633;-72
2022/06/03 12:01:09;;;;;;;1.98;1.88;;;25.70;42.40;;;;;;5012706;28;20552;-72
2022/06/03 12:03:38;;;;;;;2.03;1.92;;;25.60;42.30;;;;;;5012739;28;20200;-72
2022/06/03 12:06:07;;;;;;;2.28;2.17;;;25.70;42.40;;;;;;5012656;28;20258;-72
2022/06/03 12:08:43;;;;;;;2.08;1.98;;;25.60;42.40;;;;;;5012394;28;20291;-72
2022/06/03 12:13:14;;;;;;;2.17;2.08;;;25.70;42.40;;;;;;5012535;28;20238;-72
2022/06/03 12:14:21;;;;;;;2.03;1.92;;;25.60;42.40;;;;;;5012468;28;20204;-72
2022/06/03 12:16:55;;;;;;;2.08;1.98;;;25.70;42.40;;;;;;5012532;28;20185;-72
2022/06/03 12:19:40;;;;;;;2.20;2.10;;;25.70;42.40;;;;;;5012232;28;20221;-72
2022/06/03 12:22:22;;;;;;;2.00;1.90;;;25.70;42.40;;;;;;5014259;28;20243;-71
2022/06/03 12:24:52;;;;;;;2.20;2.00;;;25.70;42.40;;;;;;5018164;28;20613;-72
2022/06/03 12:27:37;;;;;;;2.08;1.98;;;25.70;42.50;;;;;;5020333;28;20220;-72
2022/06/03 12:30:43;;;;;;;2.10;2.00;;;25.60;42.40;;;;;;5014629;28;20239;-71
2022/06/03 12:33:20;;;;;;;1.98;1.88;;;25.60;43.10;;;;;;5015857;28;20208;-72
2022/06/03 12:35:59;;;;;;;2.00;1.90;;;25.70;42.60;;;;;;5016824;28;20200;-72
2022/06/03 12:38:49;;;;;;;1.92;1.83;;;25.60;42.50;;;;;;5016883;28;20347;-72
2022/06/03 12:41:54;;;;;;;2.10;2.00;;;25.60;42.60;;;;;;5019508;28;20188;-72
2022/06/03 12:44:39;;;;;;;2.00;1.90;;;25.60;42.60;;;;;;5016536;28;20205;-72
2022/06/03 12:47:27;;;;;;;2.20;2.00;;;25.60;42.70;;;;;;5016779;28;20590;-71
2022/06/03 12:49:56;;;;;;;2.08;1.98;;;25.50;42.70;;;;;;5015945;28;20612;-73
2022/06/03 12:52:37;;;;;;;1.90;1.80;;;25.60;42.80;;;;;;5016245;28;20215;-72
2022/06/03 12:55:06;;;;;;;2.00;1.90;;;25.50;42.90;;;;;;5016256;28;20255;-73
2022/06/03 12:57:40;;;;;;;1.90;1.80;;;25.40;42.90;;;;;;5015872;28;20239;-72
2022/06/03 13:00:08;;;;;;;2.17;1.98;;;25.50;43.00;;;;;;5015937;28;20193;-71
2022/06/03 13:02:36;;;;;;;2.03;1.92;;;25.50;43.10;;;;;;5116309;23;20241;-72
2022/06/03 13:05:23;;;;;;;2.08;1.98;;;25.40;43.10;;;;;;4996320;28;20253;-71
2022/06/03 13:08:02;;;;;;;2.22;2.00;;;25.40;43.20;;;;;;4992640;28;20296;-71
2022/06/03 13:10:54;;;;;;;2.22;2.13;;;25.40;43.20;;;;;;4993440;28;20673;-71
2022/06/03 13:13:56;;;;;;;2.00;1.90;;;25.30;43.20;;;;;;4993029;28;20206;-71
2022/06/03 13:16:35;;;;;;;2.05;1.95;;;25.30;43.20;;;;;;4976678;28;20201;-71
2022/06/03 13:19:39;;;;;;;2.03;1.92;;;25.30;43.20;;;;;;4992900;28;20277;-71
2022/06/03 13:22:09;;;;;;;2.10;2.00;;;25.40;43.30;;;;;;4992701;28;20270;-71
2022/06/03 13:24:36;;;;;;;2.38;1.95;;;25.30;43.20;;;;;;4992654;28;20205;-71
2022/06/03 13:27:12;;;;;;;1.80;1.70;;;25.40;43.20;;;;;;4977750;28;20205;-70
2022/06/03 13:30:13;;;;;;;1.90;1.80;;;25.40;43.20;;;;;;4992490;28;20237;-71
2022/06/03 13:33:08;;;;;;;2.10;2.00;;;25.40;43.20;;;;;;4992477;28;20546;-71
2022/06/03 13:35:40;;;;;;;2.33;2.22;;;25.40;43.20;;;;;;4992374;28;20244;-71
2022/06/03 13:38:24;;;;;;;1.90;1.80;;;25.40;43.20;;;;;;4977563;28;20205;-71
2022/06/03 13:43:36;;;;;;;2.10;2.00;;;25.40;43.30;;;;;;4976044;28;20174;-71
2022/06/03 13:46:06;;;;;;;2.08;1.98;;;25.30;43.90;;;;;;4992325;28;20202;-71
2022/06/03 13:48:45;;;;;;;1.90;1.80;;;25.30;43.40;;;;;;4992045;28;20698;-71
2022/06/03 13:51:23;;;;;;;1.92;1.83;;;25.30;43.40;;;;;;4992268;28;20195;-70
2022/06/03 13:53:53;;;;;;;1.95;1.85;;;25.30;43.60;;;;;;4992149;28;20248;-71
2022/06/03 13:56:22;;;;;;;1.90;1.80;;;25.30;43.60;;;;;;4992721;28;20602;-71
2022/06/03 13:58:49;;;;;;;2.13;2.03;;;25.20;44.20;;;;;;4991882;28;20717;-71
2022/06/03 14:01:23;;;;;;;1.95;1.85;;;25.30;43.60;;;;;;4992022;28;20297;-71
2022/06/03 14:03:55;;;;;;;1.92;1.83;;;25.20;43.60;;;;;;4991766;28;20212;-70
2022/06/03 14:06:24;;;;;;;2.08;1.98;;;25.20;43.60;;;;;;4991889;28;20194;-71
2022/06/03 14:08:53;;;;;;;1.90;1.80;;;25.20;43.70;;;;;;4991714;28;20230;-71
2022/06/03 14:11:22;;;;;;;1.80;1.70;;;25.30;43.70;;;;;;4975790;28;20293;-71
2022/06/03 14:13:54;;;;;;;2.03;1.92;;;25.20;43.70;;;;;;4991865;28;20202;-71
2022/06/03 14:16:24;;;;;;;1.90;1.80;;;25.20;43.70;;;;;;4992132;28;20221;-72
2022/06/03 14:18:54;;;;;;;1.90;1.80;;;25.20;43.70;;;;;;4991572;28;20222;-71
2022/06/03 14:21:26;;;;;;;1.73;1.63;;;25.20;43.80;;;;;;4991917;28;20663;-71
2022/06/03 14:23:55;;;;;;;1.90;1.80;;;25.20;44.20;;;;;;4991491;28;20691;-71